首页
METAR-TAF:

METAR-TAF

机场 :

卡迪夫機場

加的夫, 威尔士

纬度: 51-24N, 经度: 003-21W, 海拔: 67米

当前天气观测

该预报发布于38分钟前的11:50 UTC
风速10节,风向西
温度 17°C
湿度 68%
气压 1024 hPa
能見度: 4000
散云层高于1600英尺, 塔状积云.
多云层高于2700英尺
阴天层高于3900英尺
附近有阵雨

METAR: EGFF 131150Z 27010KT 9999 4000NW VCSH SCT016TCU BKN027 OVC039 17/11 Q1024

时间: 13:28 (12:28 UTC)

预报

该预报发布于1小时和32分钟前的10:56 UTC
预报有效从13日的 12点(UTC)到 14日的 12点(UTC)
风速12节,风向西转西南
能见度10公里或以上
多云层高于1600英尺
成为
从 13日的 12点(UTC)到 13日的 15点(UTC)
多云层高于1200英尺
短暂存在
从 13日的 12点(UTC)到 13日的 17点(UTC)
能見度: 4000
几率 30% :
短暂存在
从 13日的 13点(UTC)到 13日的 19点(UTC)
大雨
成为
从 13日的 15点(UTC)到 13日的 17点(UTC)
能見度: 7000
多云层高于600英尺
几率 40% :
短暂存在
从 13日的 15点(UTC)到 13日的 22点(UTC)
多云层高于400英尺
短暂存在
从 13日的 17点(UTC)到 13日的 21点(UTC)
能見度: 3000
雨, 毛毛雨, 轻雾
成为
从 13日的 20点(UTC)到 13日的 23点(UTC)
风速3节,风向西北
能见度10公里或以上
散云层高于3500英尺
成为
从 14日的 09点(UTC)到 14日的 12点(UTC)
风速13节,风向西

TAF: EGFF 131056Z 1312/1412 25012KT 9999 BKN016 BECMG 1312/1315 BKN012 TEMPO 1312/1317 4000 RA PROB30 TEMPO 1313/1319 +RA BECMG 1315/1317 7000 BKN006 PROB40 TEMPO 1315/1322 BKN004 TEMPO 1317/1321 3000 RADZ BR BECMG 1320/1323 31003KT 9999 NSW SCT035 BECMG 1409/1412 27013KT

超过4000个机场的气象观测和天气预报(METAR&TAF报告)。

可查询的气象台以黄色和红色小点在地图上表示。

将鼠标移到小点上方,可查看气象台名称。

然后点击查看天气观测和预报。

如需切换地图:点击带黑十字的绿色按钮放大地图;点击带横线的绿色按钮缩小地图;或者点击绿色箭头查看邻近地区的地图。


METAR-TAF: